createdAt,value
2016-10-03T00:00:57.179Z,98.13
2016-10-03T00:01:57.460Z,98.9
2016-10-03T00:02:57.112Z,98.99
2016-10-03T00:03:57.464Z,99.27
2016-10-03T00:04:57.410Z,98.99
2016-10-03T00:05:56.944Z,98.9
2016-10-03T00:06:56.909Z,99.18
2016-10-03T00:07:57.205Z,98.99
2016-10-03T00:08:57.173Z,98.99
2016-10-03T00:09:57.178Z,98.9
2016-10-03T00:10:57.279Z,98.13
2016-10-03T00:11:57.357Z,97.46
2016-10-03T00:12:57.215Z,98.03
2016-10-03T00:13:57.497Z,98.03
2016-10-03T00:14:57.472Z,97.85
2016-10-03T00:15:57.271Z,97.66
2016-10-03T00:16:56.829Z,97.17
2016-10-03T00:17:57.623Z,98.22
2016-10-03T00:18:57.325Z,98.03
2016-10-03T00:19:57.439Z,97.56
2016-10-03T00:20:57.442Z,97.75
2016-10-03T00:21:57.237Z,98.03
2016-10-03T00:22:57.524Z,97.85
2016-10-03T00:23:57.415Z,97.75
2016-10-03T00:24:57.963Z,98.42
2016-10-03T00:25:57.644Z,98.51
2016-10-03T00:26:57.742Z,98.22
2016-10-03T00:27:57.717Z,97.85
2016-10-03T00:28:57.491Z,97.27
2016-10-03T00:29:57.796Z,97.85
2016-10-03T00:30:58.325Z,97.37
2016-10-03T00:31:57.659Z,97.27
2016-10-03T00:32:57.322Z,97.46
2016-10-03T00:33:58.252Z,97.46
2016-10-03T00:34:57.271Z,97.37
2016-10-03T00:35:57.768Z,97.08
2016-10-03T00:36:57.455Z,97.66
2016-10-03T00:37:57.676Z,96.98
2016-10-03T00:38:57.486Z,96.8
2016-10-03T00:39:58.192Z,97.51
2016-10-03T00:40:57.552Z,97.08
2016-10-03T00:41:57.762Z,97.03
2016-10-03T00:42:57.173Z,96.94
2016-10-03T00:43:57.359Z,97.61
2016-10-03T00:44:57.547Z,97.8
2016-10-03T00:45:57.657Z,97.42
2016-10-03T00:46:57.804Z,97.61
2016-10-03T00:47:58.107Z,97.71
2016-10-03T00:48:59.018Z,98.03
2016-10-03T00:49:57.552Z,98.32
2016-10-03T00:50:57.761Z,98.32
2016-10-03T00:51:57.855Z,97.46
2016-10-03T00:52:57.665Z,97.32
2016-10-03T00:53:58.110Z,97.32
2016-10-03T00:54:58.495Z,97.8
2016-10-03T00:55:57.738Z,97.51
2016-10-03T00:56:59.262Z,96.66
2016-10-03T00:57:58.373Z,97.13
2016-10-03T00:58:57.979Z,97.03
2016-10-03T00:59:58.028Z,97.32
2016-10-03T01:00:57.759Z,97.51
2016-10-03T01:01:58.410Z,97.61
2016-10-03T01:02:58.016Z,97.51
2016-10-03T01:03:58.174Z,97.99
2016-10-03T01:04:58.595Z,97.85
2016-10-03T01:05:58.580Z,98.37
2016-10-03T01:06:57.923Z,98.13
2016-10-03T01:07:57.727Z,98.03
2016-10-03T01:08:58.081Z,98.08
2016-10-03T01:09:57.932Z,97.89
2016-10-03T01:10:58.265Z,97.8
2016-10-03T01:11:59.012Z,97.42
2016-10-03T01:12:58.591Z,97.51
2016-10-03T01:13:58.471Z,97.89
2016-10-03T01:14:57.997Z,98.18
2016-10-03T01:15:59.023Z,98.08
2016-10-03T01:16:58.049Z,98.08
2016-10-03T01:17:58.416Z,98.08
2016-10-03T01:18:58.752Z,98.08
2016-10-03T01:19:58.491Z,98.08
2016-10-03T01:20:58.943Z,98.08
2016-10-03T01:21:58.684Z,97.99
2016-10-03T01:22:58.667Z,97.8
2016-10-03T01:23:58.361Z,98.18
2016-10-03T01:24:58.342Z,97.89
2016-10-03T01:25:58.296Z,98.08
2016-10-03T01:26:58.241Z,97.99
2016-10-03T01:27:59.006Z,98.37
2016-10-03T01:28:58.696Z,98.08
2016-10-03T01:29:59.627Z,98.66
2016-10-03T01:30:58.854Z,98.56
2016-10-03T01:31:58.712Z,97.89
2016-10-03T01:32:58.931Z,98.18
2016-10-03T01:33:58.883Z,98.08
2016-10-03T01:34:58.810Z,98.18
2016-10-03T01:35:58.890Z,98.27
2016-10-03T01:36:58.772Z,97.89
2016-10-03T01:37:58.536Z,99.23
2016-10-03T01:38:58.819Z,99.13
2016-10-03T01:39:58.696Z,99.99
2016-10-03T01:40:59.003Z,99.71
2016-10-03T01:41:59.145Z,99.71
2016-10-03T01:42:59.310Z,99.99
2016-10-03T01:43:58.950Z,99.99
2016-10-03T01:44:58.562Z,99.99
2016-10-03T01:45:58.629Z,99.99
2016-10-03T01:46:59.721Z,99.99
2016-10-03T01:47:59.195Z,99.99
2016-10-03T01:49:00.045Z,99.99
2016-10-03T01:49:58.572Z,99.85
2016-10-03T01:50:59.020Z,98.9
2016-10-03T01:51:58.950Z,99.18
2016-10-03T01:52:58.660Z,99.18
2016-10-03T01:53:58.680Z,98.42
2016-10-03T01:54:58.694Z,98.51
2016-10-03T01:55:59.173Z,97.27
2016-10-03T01:56:58.827Z,98.13
2016-10-03T01:57:59.484Z,98.03
2016-10-03T01:58:58.877Z,98.22
2016-10-03T01:59:58.919Z,98.22
2016-10-03T02:00:59.440Z,98.03
2016-10-03T02:01:58.903Z,98.03
2016-10-03T02:02:59.118Z,98.13
2016-10-03T02:03:59.091Z,98.03
2016-10-03T02:04:59.085Z,98.03
2016-10-03T02:05:59.071Z,97.85
2016-10-03T02:07:00.012Z,97.56
2016-10-03T02:08:00.986Z,97.75
2016-10-03T02:08:59.280Z,97.75
2016-10-03T02:10:00.135Z,97.56
2016-10-03T02:10:59.354Z,97.75
2016-10-03T02:11:59.697Z,97.75
2016-10-03T02:12:59.525Z,97.85
2016-10-03T02:13:59.441Z,96.98
2016-10-03T02:14:59.374Z,96.98
2016-10-03T02:16:00.587Z,97.17
2016-10-03T02:16:59.371Z,96.89
2016-10-03T02:17:59.453Z,97.46
2016-10-03T02:18:59.513Z,97.37
2016-10-03T02:19:59.862Z,97.66
2016-10-03T02:20:59.173Z,97.94
2016-10-03T02:22:01.326Z,97.94
2016-10-03T02:22:59.554Z,98.22
2016-10-03T02:23:59.549Z,98.03
2016-10-03T02:24:59.510Z,97.22
2016-10-03T02:26:00.058Z,97.75
2016-10-03T02:27:00.010Z,97.13
2016-10-03T02:28:00.206Z,96.03
2016-10-03T02:28:59.672Z,96.32
2016-10-03T02:29:59.694Z,95.65
2016-10-03T02:30:59.678Z,95.84
2016-10-03T02:32:00.720Z,95.84
2016-10-03T02:33:00.385Z,96.61
2016-10-03T02:33:59.366Z,96.61
2016-10-03T02:34:59.380Z,96.27
2016-10-03T02:36:00.606Z,96.56
2016-10-03T02:37:00.167Z,96.17
2016-10-03T02:37:59.935Z,96.56
2016-10-03T02:39:00.137Z,96.27
2016-10-03T02:40:00.380Z,96.56
2016-10-03T02:41:00.299Z,96.08
2016-10-03T02:42:00.625Z,96.56
2016-10-03T02:43:00.050Z,96.46
2016-10-03T02:43:59.918Z,97.03
2016-10-03T02:44:59.910Z,96.27
2016-10-03T02:46:00.617Z,95.7
2016-10-03T02:47:00.020Z,96.46
2016-10-03T02:47:59.889Z,96.36
2016-10-03T02:49:00.044Z,96.65
2016-10-03T02:50:00.357Z,96.08
2016-10-03T02:51:00.357Z,95.89
2016-10-03T02:51:59.954Z,95.51
2016-10-03T02:53:00.133Z,95.89
2016-10-03T02:53:59.979Z,95.22
2016-10-03T02:55:00.273Z,95.61
2016-10-03T02:56:00.399Z,95.32
2016-10-03T02:57:00.143Z,95.51
2016-10-03T02:58:00.081Z,95.51
2016-10-03T02:59:00.412Z,96.17
2016-10-03T03:00:01.589Z,95.22
2016-10-03T03:01:00.359Z,96.08
2016-10-03T03:02:00.409Z,94.93
2016-10-03T03:03:00.458Z,95.32
2016-10-03T03:04:00.106Z,95.61
2016-10-03T03:05:01.691Z,95.12
2016-10-03T03:06:00.972Z,95.89
2016-10-03T03:07:00.477Z,95.41
2016-10-03T03:08:00.696Z,95.61
2016-10-03T03:09:00.823Z,95.03
2016-10-03T03:10:00.797Z,95.12
2016-10-03T03:11:00.858Z,94.93
2016-10-03T03:12:00.564Z,95.22
2016-10-03T03:13:00.161Z,95.32
2016-10-03T03:14:00.714Z,95.12
2016-10-03T03:15:00.601Z,94.74
2016-10-03T03:16:00.955Z,95.51
2016-10-03T03:17:00.587Z,94.93
2016-10-03T03:18:01.735Z,94.93
2016-10-03T03:19:00.573Z,95.17
2016-10-03T03:20:01.426Z,94.98
2016-10-03T03:21:01.223Z,95.56
2016-10-03T03:22:00.808Z,95.46
2016-10-03T03:23:00.786Z,95.46
2016-10-03T03:24:00.595Z,95.65
2016-10-03T03:25:00.582Z,95.17
2016-10-03T03:26:01.343Z,94.98
2016-10-03T03:27:01.080Z,94.98
2016-10-03T03:28:00.792Z,94.89
2016-10-03T03:29:01.310Z,95.17
2016-10-03T03:30:00.890Z,95.17
2016-10-03T03:31:00.798Z,95.17
2016-10-03T03:32:01.424Z,94.98
2016-10-03T03:33:01.141Z,95.17
2016-10-03T03:34:00.604Z,95.46
2016-10-03T03:35:01.850Z,95.65
2016-10-03T03:36:01.303Z,95.36
2016-10-03T03:37:01.563Z,95.36
2016-10-03T03:38:00.908Z,95.94
2016-10-03T03:39:01.111Z,95.27
2016-10-03T03:40:01.423Z,94.98
2016-10-03T03:41:01.532Z,95.08
2016-10-03T03:42:01.218Z,95.17
2016-10-03T03:43:01.442Z,95.17
2016-10-03T03:44:01.186Z,95.27
2016-10-03T03:45:01.657Z,95.46
2016-10-03T03:46:01.479Z,95.56
2016-10-03T03:47:01.055Z,95.17
2016-10-03T03:48:01.323Z,95.36
2016-10-03T03:49:01.070Z,95.08
2016-10-03T03:50:01.167Z,95.08
2016-10-03T03:51:01.414Z,94.7
2016-10-03T03:52:01.486Z,95.27
2016-10-03T03:53:01.756Z,94.89
2016-10-03T03:54:00.883Z,95.17
2016-10-03T03:55:00.926Z,94.79
2016-10-03T03:56:01.388Z,94.98
2016-10-03T03:57:01.295Z,95.46
2016-10-03T03:58:01.272Z,94.98
2016-10-03T03:59:01.326Z,94.7
2016-10-03T04:00:01.816Z,94.7
2016-10-03T04:01:01.922Z,94.98
2016-10-03T04:02:02.008Z,94.6
2016-10-03T04:03:01.480Z,94.84
2016-10-03T04:04:01.400Z,95.03
2016-10-03T04:05:01.975Z,94.89
2016-10-03T04:06:01.445Z,95.12
2016-10-03T04:07:01.308Z,94.93
2016-10-03T04:08:01.731Z,95.41
2016-10-03T04:09:02.622Z,95.79
2016-10-03T04:10:01.483Z,95.22
2016-10-03T04:11:01.679Z,95.12
2016-10-03T04:12:01.715Z,95.03
2016-10-03T04:13:02.562Z,96.08
2016-10-03T04:14:02.249Z,95.89
2016-10-03T04:15:01.887Z,95.6
2016-10-03T04:16:02.126Z,95.7
2016-10-03T04:17:01.956Z,95.22
2016-10-03T04:18:02.416Z,95.32
2016-10-03T04:19:01.872Z,95.89
2016-10-03T04:20:01.856Z,95.7
2016-10-03T04:21:01.842Z,95.32
2016-10-03T04:22:01.847Z,95.51
2016-10-03T04:23:01.491Z,95.6
2016-10-03T04:24:02.062Z,95.32
2016-10-03T04:25:01.760Z,95.03
2016-10-03T04:26:01.518Z,94.93
2016-10-03T04:27:02.122Z,95.32
2016-10-03T04:28:02.040Z,95.22
2016-10-03T04:29:02.142Z,95.89
2016-10-03T04:30:03.254Z,95.51
2016-10-03T04:31:02.318Z,95.89
2016-10-03T04:32:03.085Z,95.6
2016-10-03T04:33:02.591Z,95.89
2016-10-03T04:34:02.272Z,95.89
2016-10-03T04:35:02.463Z,96.08
2016-10-03T04:36:02.726Z,95.6
2016-10-03T04:37:02.372Z,95.41
2016-10-03T04:38:02.504Z,95.89
2016-10-03T04:39:02.445Z,95.12
2016-10-03T04:40:01.812Z,95.7
2016-10-03T04:41:02.391Z,95.51
2016-10-03T04:42:01.906Z,95.51
2016-10-03T04:43:02.270Z,95.89
2016-10-03T04:44:01.985Z,96.27
2016-10-03T04:45:01.990Z,96.46
2016-10-03T04:46:01.898Z,96.27
2016-10-03T04:47:01.582Z,96.08
2016-10-03T04:48:01.912Z,96.46
2016-10-03T04:49:01.593Z,96.46
2016-10-03T04:50:01.619Z,96.75
2016-10-03T04:51:01.957Z,96.36
2016-10-03T04:52:01.699Z,96.27
2016-10-03T04:53:01.646Z,97.03
2016-10-03T04:54:01.703Z,96.94
2016-10-03T04:55:02.028Z,97.03
2016-10-03T04:56:01.758Z,96.84
2016-10-03T04:57:01.788Z,96.84
2016-10-03T04:58:01.747Z,96.27
2016-10-03T04:59:01.781Z,96.46
2016-10-03T05:00:01.873Z,96.65
2016-10-03T05:01:01.874Z,96.55
2016-10-03T05:02:02.942Z,97.13
2016-10-03T05:03:02.068Z,96.84
2016-10-03T05:04:02.272Z,96.75
2016-10-03T05:05:02.295Z,96.65
2016-10-03T05:06:02.385Z,96.65
2016-10-03T05:07:03.918Z,96.55
2016-10-03T05:08:02.962Z,96.75
2016-10-03T05:09:02.318Z,96.65
2016-10-03T05:10:02.499Z,96.46
2016-10-03T05:11:03.230Z,96.27
2016-10-03T05:12:02.928Z,96.17
2016-10-03T05:13:02.758Z,96.36
2016-10-03T05:14:02.521Z,96.65
2016-10-03T05:15:02.998Z,96.36
2016-10-03T05:16:02.852Z,96.46
2016-10-03T05:17:03.058Z,96.75
2016-10-03T05:18:02.977Z,96.27
2016-10-03T05:19:03.464Z,95.6
2016-10-03T05:20:03.121Z,95.51
2016-10-03T05:21:02.740Z,95.98
2016-10-03T05:22:03.152Z,95.98
2016-10-03T05:23:03.391Z,96.27
2016-10-03T05:24:02.628Z,95.98
2016-10-03T05:25:02.964Z,96.12
2016-10-03T05:26:03.182Z,96.41
2016-10-03T05:27:03.471Z,95.98
2016-10-03T05:28:02.943Z,96.27
2016-10-03T05:29:03.928Z,96.08
2016-10-03T05:30:04.068Z,96.17
2016-10-03T05:31:03.485Z,95.98
2016-10-03T05:32:03.402Z,96.27
2016-10-03T05:33:02.465Z,96.32
2016-10-03T05:34:04.140Z,96.32
2016-10-03T05:35:02.781Z,95.79
2016-10-03T05:36:03.107Z,96.17
2016-10-03T05:37:03.295Z,96.36
2016-10-03T05:38:03.319Z,96.46
2016-10-03T05:39:03.672Z,96.32
2016-10-03T05:40:03.147Z,96.84
2016-10-03T05:41:03.170Z,96.8
2016-10-03T05:42:03.526Z,96.46
2016-10-03T05:43:03.427Z,96.12
2016-10-03T05:44:03.032Z,96.51
2016-10-03T05:45:03.416Z,96.84
2016-10-03T05:46:03.956Z,96.51
2016-10-03T05:47:03.520Z,96.22
2016-10-03T05:48:03.348Z,96.12
2016-10-03T05:49:03.835Z,96.41
2016-10-03T05:50:03.547Z,96.22
2016-10-03T05:51:06.086Z,97.08
2016-10-03T05:52:03.967Z,96.8
2016-10-03T05:53:04.160Z,96.41
2016-10-03T05:54:03.715Z,96.32
2016-10-03T05:55:03.543Z,96.51
2016-10-03T05:56:03.444Z,97.17
2016-10-03T05:57:03.986Z,96.12
2016-10-03T05:58:04.327Z,96.51
2016-10-03T05:59:03.413Z,96.98
2016-10-03T06:00:03.800Z,96.03
2016-10-03T06:01:03.641Z,96.98
2016-10-03T06:02:03.381Z,97.08
2016-10-03T06:03:03.385Z,97.27
2016-10-03T06:04:04.109Z,97.36
2016-10-03T06:05:03.592Z,97.65
2016-10-03T06:06:03.937Z,97.56
2016-10-03T06:07:03.736Z,97.27
2016-10-03T06:08:03.935Z,97.17
2016-10-03T06:09:04.763Z,97.36
2016-10-03T06:10:03.944Z,97.46
2016-10-03T06:11:03.809Z,96.98
2016-10-03T06:12:03.708Z,97.27
2016-10-03T06:13:03.794Z,97.36
2016-10-03T06:14:03.533Z,97.46
2016-10-03T06:15:03.596Z,96.89
2016-10-03T06:16:04.069Z,97.36
2016-10-03T06:17:03.931Z,97.65
2016-10-03T06:18:03.864Z,97.08
2016-10-03T06:19:04.204Z,97.56
2016-10-03T06:20:03.817Z,97.17
2016-10-03T06:21:04.279Z,97.75
2016-10-03T06:22:04.104Z,97.56
2016-10-03T06:23:03.747Z,97.17
2016-10-03T06:24:04.613Z,96.51
2016-10-03T06:25:04.174Z,97.17
2016-10-03T06:26:04.197Z,97.56
2016-10-03T06:27:04.214Z,97.56
2016-10-03T06:28:04.898Z,96.98
2016-10-03T06:29:04.159Z,97.08
2016-10-03T06:30:04.060Z,96.6
2016-10-03T06:31:04.096Z,96.41
2016-10-03T06:32:04.127Z,96.41
2016-10-03T06:33:04.075Z,96.89
2016-10-03T06:34:04.152Z,97.08
2016-10-03T06:35:04.233Z,96.7
2016-10-03T06:36:03.831Z,97.17
2016-10-03T06:37:05.035Z,96.6
2016-10-03T06:38:04.411Z,96.22
2016-10-03T06:39:04.856Z,96.32
2016-10-03T06:40:04.776Z,95.94
2016-10-03T06:41:04.935Z,96.32
2016-10-03T06:42:05.228Z,96.03
2016-10-03T06:43:04.775Z,96.22
2016-10-03T06:44:04.647Z,96.12
2016-10-03T06:45:04.545Z,96.89
2016-10-03T06:46:04.536Z,96.22
2016-10-03T06:47:05.367Z,96.03
2016-10-03T06:48:04.846Z,95.75
2016-10-03T06:49:04.551Z,95.65
2016-10-03T06:50:04.464Z,95.65
2016-10-03T06:51:04.315Z,95.56
2016-10-03T06:52:04.747Z,95.56
2016-10-03T06:53:03.930Z,95.94
2016-10-03T06:54:03.963Z,95.56
2016-10-03T06:55:04.268Z,95.75
2016-10-03T06:56:04.619Z,95.84
2016-10-03T06:57:04.754Z,95.51
2016-10-03T06:58:04.655Z,96.03
2016-10-03T06:59:05.197Z,95.56
2016-10-03T07:00:04.604Z,95.36
2016-10-03T07:01:05.400Z,95.75
2016-10-03T07:02:06.009Z,96.12
2016-10-03T07:03:05.582Z,95.46
2016-10-03T07:04:04.743Z,96.51
2016-10-03T07:05:05.255Z,95.65
2016-10-03T07:06:04.478Z,96.56
2016-10-03T07:07:05.348Z,96.03
2016-10-03T07:08:04.787Z,96.36
2016-10-03T07:09:05.158Z,96.6
2016-10-03T07:10:05.550Z,96.12
2016-10-03T07:11:05.378Z,95.75
2016-10-03T07:12:04.766Z,96.36
2016-10-03T07:13:05.492Z,95.79
2016-10-03T07:14:04.782Z,95.51
2016-10-03T07:15:05.141Z,95.61
2016-10-03T07:16:05.376Z,96.08
2016-10-03T07:17:05.522Z,95.22
2016-10-03T07:18:05.271Z,95.61
2016-10-03T07:19:05.007Z,95.98
2016-10-03T07:20:04.936Z,95.98
2016-10-03T07:21:05.641Z,95.22
2016-10-03T07:22:06.316Z,95.7
2016-10-03T07:23:04.723Z,95.41
2016-10-03T07:24:05.517Z,95.03
2016-10-03T07:25:05.605Z,95.12
2016-10-03T07:26:04.904Z,95.08
2016-10-03T07:27:05.602Z,94.89
2016-10-03T07:28:04.935Z,94.41
2016-10-03T07:29:06.067Z,94.7
2016-10-03T07:30:04.990Z,95.17
2016-10-03T07:31:06.038Z,94.41
2016-10-03T07:32:05.161Z,94.6
2016-10-03T07:33:05.819Z,95.08
2016-10-03T07:34:05.491Z,94.89
2016-10-03T07:35:05.927Z,94.79
2016-10-03T07:36:05.567Z,95.03
2016-10-03T07:37:05.433Z,94.89
2016-10-03T07:38:06.171Z,94.93
2016-10-03T07:39:05.687Z,94.56
2016-10-03T07:40:05.267Z,94.65
2016-10-03T07:41:05.893Z,94.84
2016-10-03T07:42:05.337Z,94.74
2016-10-03T07:43:05.720Z,94.74
2016-10-03T07:44:06.160Z,95.12
2016-10-03T07:45:05.685Z,93.98
2016-10-03T07:46:05.610Z,95.03
2016-10-03T07:47:06.728Z,94.93
2016-10-03T07:48:06.258Z,95.12
2016-10-03T07:49:06.440Z,94.93
2016-10-03T07:50:06.162Z,95.22
2016-10-03T07:51:05.475Z,95.12
2016-10-03T07:52:05.606Z,95.65
2016-10-03T07:53:05.745Z,95.27
2016-10-03T07:54:07.175Z,95.17
2016-10-03T07:55:06.187Z,95.17
2016-10-03T07:56:06.558Z,94.98
2016-10-03T07:57:06.101Z,94.79
2016-10-03T07:58:06.288Z,95.27
2016-10-03T07:59:07.853Z,95.17
2016-10-03T08:00:06.333Z,94.41
2016-10-03T08:01:05.954Z,94.22
2016-10-03T08:02:06.567Z,94.7
2016-10-03T08:03:06.407Z,94.79
2016-10-03T08:04:06.086Z,94.79
2016-10-03T08:05:06.699Z,94.6
2016-10-03T08:06:06.302Z,93.84
2016-10-03T08:07:06.543Z,94.7
2016-10-03T08:08:06.002Z,94.22
2016-10-03T08:09:06.382Z,93.65
2016-10-03T08:10:05.646Z,94.03
2016-10-03T08:11:05.996Z,94.03
2016-10-03T08:12:06.596Z,93.55
2016-10-03T08:13:06.064Z,93.93
2016-10-03T08:14:06.636Z,94.03
2016-10-03T08:15:06.698Z,94.51
2016-10-03T08:16:06.111Z,94.32
2016-10-03T08:17:07.050Z,94.51
2016-10-03T08:18:06.670Z,94.22
2016-10-03T08:19:06.517Z,93.65
2016-10-03T08:20:06.366Z,94.12
2016-10-03T08:21:06.024Z,94.03
2016-10-03T08:22:06.248Z,93.08
2016-10-03T08:23:06.524Z,93.93
2016-10-03T08:24:06.559Z,93.93
2016-10-03T08:25:06.261Z,93.74
2016-10-03T08:26:05.957Z,94.03
2016-10-03T08:27:06.094Z,93.36
2016-10-03T08:28:06.244Z,92.79
2016-10-03T08:29:06.609Z,93.36
2016-10-03T08:30:06.225Z,93.36
2016-10-03T08:31:06.300Z,93.17
2016-10-03T08:32:06.752Z,93.46
2016-10-03T08:33:07.326Z,93.36
2016-10-03T08:34:06.744Z,93.46
2016-10-03T08:35:06.824Z,93.17
2016-10-03T08:36:06.898Z,93.46
2016-10-03T08:37:06.677Z,93.46
2016-10-03T08:38:06.924Z,93.36
2016-10-03T08:39:07.028Z,93.84
2016-10-03T08:40:07.136Z,93.08
2016-10-03T08:41:06.567Z,92.88
2016-10-03T08:42:07.178Z,92.79
2016-10-03T08:43:07.119Z,93.46
2016-10-03T08:44:07.263Z,93.08
2016-10-03T08:45:06.994Z,93.36
2016-10-03T08:46:06.656Z,92.12
2016-10-03T08:47:06.463Z,92.79
2016-10-03T08:48:07.498Z,92.69
2016-10-03T08:49:07.197Z,93.46
2016-10-03T08:50:06.557Z,93.36
2016-10-03T08:51:07.214Z,92.5
2016-10-03T08:52:06.827Z,92.69
2016-10-03T08:53:07.379Z,92.79
2016-10-03T08:54:07.209Z,92.22
2016-10-03T08:55:06.776Z,92.12
2016-10-03T08:56:06.571Z,92.79
2016-10-03T08:57:06.959Z,93.55
2016-10-03T08:58:07.564Z,93.55
2016-10-03T08:59:07.271Z,92.6
2016-10-03T09:00:06.763Z,92.69
2016-10-03T09:01:07.579Z,92.41
2016-10-03T09:02:07.598Z,92.41
2016-10-03T09:03:07.289Z,92.5
2016-10-03T09:04:07.218Z,92.32
2016-10-03T09:05:07.251Z,92.22
2016-10-03T09:06:07.519Z,92.03
2016-10-03T09:07:08.018Z,92.5
2016-10-03T09:08:07.401Z,92.32
2016-10-03T09:09:07.129Z,92.12
2016-10-03T09:10:07.292Z,92.5
2016-10-03T09:11:07.028Z,91.93
2016-10-03T09:12:06.981Z,92.12
2016-10-03T09:13:06.965Z,92.5
2016-10-03T09:14:07.467Z,92.32
2016-10-03T09:15:07.846Z,92.6
2016-10-03T09:16:07.379Z,92.41
2016-10-03T09:17:07.694Z,91.88
2016-10-03T09:18:07.178Z,91.83
2016-10-03T09:19:07.643Z,91.69
2016-10-03T09:20:07.349Z,92.07
2016-10-03T09:21:07.278Z,92.46
2016-10-03T09:22:07.242Z,91.69
2016-10-03T09:23:07.751Z,91.88
2016-10-03T09:24:07.354Z,91.6
2016-10-03T09:25:07.474Z,91.41
2016-10-03T09:26:07.415Z,91.55
2016-10-03T09:27:07.395Z,90.5
2016-10-03T09:28:08.370Z,90.4
2016-10-03T09:29:08.173Z,89.64
2016-10-03T09:30:07.907Z,90.11
2016-10-03T09:31:07.387Z,89.92
2016-10-03T09:32:08.011Z,89.35
2016-10-03T09:33:07.973Z,89.73
2016-10-03T09:34:07.909Z,89.25
2016-10-03T09:35:07.886Z,88.97
2016-10-03T09:36:07.693Z,88.97
2016-10-03T09:37:07.933Z,89.54
2016-10-03T09:38:08.092Z,89.25
2016-10-03T09:39:07.484Z,89.35
2016-10-03T09:40:08.197Z,89.25
2016-10-03T09:41:08.446Z,89.25
2016-10-03T09:42:07.777Z,89.35
2016-10-03T09:43:08.281Z,89.54
2016-10-03T09:44:08.032Z,89.73
2016-10-03T09:45:07.683Z,89.54
2016-10-03T09:46:07.987Z,88.68
2016-10-03T09:47:07.727Z,88.59
2016-10-03T09:48:07.840Z,89.25
2016-10-03T09:49:07.642Z,89.06
2016-10-03T09:50:08.017Z,89.45
2016-10-03T09:51:07.773Z,88.68
2016-10-03T09:52:07.797Z,89.25
2016-10-03T09:53:08.021Z,89.54
2016-10-03T09:54:08.005Z,88.87
2016-10-03T09:55:08.578Z,89.54
2016-10-03T09:56:08.555Z,88.68
2016-10-03T09:57:08.434Z,88.4
2016-10-03T09:58:08.674Z,89.92
2016-10-03T09:59:07.869Z,89.45
2016-10-03T10:00:08.588Z,90.11
2016-10-03T10:01:08.599Z,90.21
2016-10-03T10:02:09.000Z,89.64
2016-10-03T10:03:08.728Z,89.54
2016-10-03T10:04:08.905Z,89.25
2016-10-03T10:05:08.267Z,88.68
2016-10-03T10:06:09.380Z,88.68
2016-10-03T10:07:08.640Z,88.97
2016-10-03T10:08:08.806Z,88.59
2016-10-03T10:09:09.554Z,88.01
2016-10-03T10:10:08.613Z,88.68
2016-10-03T10:11:08.555Z,88.68
2016-10-03T10:12:08.994Z,88.3
2016-10-03T10:13:08.677Z,88.11
2016-10-03T10:14:08.355Z,89.16
2016-10-03T10:15:08.800Z,88.78
2016-10-03T10:16:08.312Z,88.3
2016-10-03T10:17:09.874Z,88.68
2016-10-03T10:18:08.669Z,88.87
2016-10-03T10:19:08.443Z,89.16
2016-10-03T10:20:08.516Z,87.68
2016-10-03T10:21:08.572Z,87.87
2016-10-03T10:22:09.249Z,88.82
2016-10-03T10:23:09.195Z,88.82
2016-10-03T10:24:08.453Z,88.44
2016-10-03T10:25:09.217Z,89.3
2016-10-03T10:26:09.082Z,88.44
2016-10-03T10:27:08.722Z,88.15
2016-10-03T10:28:08.906Z,87.29
2016-10-03T10:29:09.658Z,86.43
2016-10-03T10:30:08.755Z,87.1
2016-10-03T10:31:09.290Z,87.96
2016-10-03T10:32:08.844Z,87.2
2016-10-03T10:33:08.798Z,87.58
2016-10-03T10:34:09.515Z,87.48
2016-10-03T10:35:08.898Z,85.86
2016-10-03T10:36:08.842Z,87.01
2016-10-03T10:37:09.212Z,86.05
2016-10-03T10:38:09.625Z,86.43
2016-10-03T10:39:08.867Z,85.77
2016-10-03T10:40:09.566Z,87.29
2016-10-03T10:41:08.908Z,87.68
2016-10-03T10:42:09.061Z,86.63
2016-10-03T10:43:09.059Z,86.86
2016-10-03T10:44:09.510Z,87.05
2016-10-03T10:45:08.945Z,85.71
2016-10-03T10:46:09.590Z,85.62
2016-10-03T10:47:08.923Z,85.62
2016-10-03T10:48:09.104Z,86
2016-10-03T10:49:08.999Z,84.99
2016-10-03T10:50:09.853Z,84.03
2016-10-03T10:51:09.111Z,84.8
2016-10-03T10:52:09.000Z,83.33
2016-10-03T10:53:09.206Z,83.99
2016-10-03T10:54:09.077Z,83.9
2016-10-03T10:55:09.024Z,83.56
2016-10-03T10:56:09.625Z,83.75
2016-10-03T10:57:09.295Z,84.32
2016-10-03T10:58:09.065Z,82.98
2016-10-03T10:59:09.205Z,82.54
2016-10-03T11:00:09.245Z,82.74
2016-10-03T11:01:09.731Z,81.82
2016-10-03T11:02:09.168Z,81.05
2016-10-03T11:03:10.021Z,81.15
2016-10-03T11:04:09.650Z,81.05
2016-10-03T11:05:09.246Z,81.34
2016-10-03T11:06:09.436Z,81.02
2016-10-03T11:07:10.695Z,81.78
2016-10-03T11:08:10.077Z,82.35
2016-10-03T11:09:10.783Z,82.74
2016-10-03T11:10:10.192Z,81.88
2016-10-03T11:11:10.211Z,83.17
2016-10-03T11:12:09.767Z,84.23
2016-10-03T11:13:09.851Z,83.89
2016-10-03T11:14:10.040Z,81.3
2016-10-03T11:15:09.640Z,81.36
2016-10-03T11:16:10.695Z,81.84
2016-10-03T11:17:09.688Z,83.17
2016-10-03T11:18:10.237Z,81.84
2016-10-03T11:19:09.931Z,81.65
2016-10-03T11:20:09.911Z,81.74
2016-10-03T11:21:10.449Z,82.22
2016-10-03T11:22:09.816Z,83.37
2016-10-03T11:23:09.974Z,81.97
2016-10-03T11:24:09.763Z,80.82
2016-10-03T11:25:09.702Z,82.07
2016-10-03T11:26:11.638Z,81.21
2016-10-03T11:27:09.861Z,81.21
2016-10-03T11:28:09.959Z,80.63
2016-10-03T11:29:10.140Z,81.4
2016-10-03T11:30:10.731Z,81.4
2016-10-03T11:31:10.499Z,81.4
2016-10-03T11:32:10.278Z,81.11
2016-10-03T11:33:10.867Z,82.68
2016-10-03T11:34:10.565Z,81.63
2016-10-03T11:35:10.796Z,79.81
2016-10-03T11:36:10.254Z,80.96
2016-10-03T11:37:10.390Z,79.33
2016-10-03T11:38:10.264Z,78.86
2016-10-03T11:39:09.883Z,78.19
2016-10-03T11:40:10.273Z,79.43
2016-10-03T11:41:10.751Z,79.91
2016-10-03T11:42:10.715Z,82.06
2016-10-03T11:43:10.275Z,78.36
2016-10-03T11:44:09.867Z,77.11
2016-10-03T11:45:10.717Z,75.87
2016-10-03T11:46:10.929Z,75.39
2016-10-03T11:47:10.043Z,74.31
2016-10-03T11:48:10.722Z,74.06
2016-10-03T11:49:10.523Z,72.75
2016-10-03T11:50:10.700Z,70.52
2016-10-03T11:51:10.089Z,73.02
2016-10-03T11:52:11.439Z,68.48
2016-10-03T11:53:11.446Z,69.4
2016-10-03T11:54:10.663Z,70.37
2016-10-03T11:55:11.165Z,69.27
2016-10-03T11:56:10.246Z,74.43
2016-10-03T11:57:10.507Z,68.89
2016-10-03T11:58:10.555Z,73.81
2016-10-03T11:59:10.463Z,71.41
2016-10-03T12:00:11.959Z,71.66
2016-10-03T12:01:11.129Z,73.97
2016-10-03T12:02:10.968Z,73.22
2016-10-03T12:03:10.524Z,74.66
2016-10-03T12:04:10.344Z,75.29
2016-10-03T12:05:11.448Z,76.15
2016-10-03T12:06:12.033Z,76.92
2016-10-03T12:07:10.539Z,77.65
2016-10-03T12:08:11.365Z,78.51
2016-10-03T12:09:11.120Z,78.66
2016-10-03T12:10:10.675Z,79.33
2016-10-03T12:11:11.614Z,79.52
2016-10-03T12:12:11.048Z,80.38
2016-10-03T12:13:10.853Z,80.63
2016-10-03T12:14:10.641Z,80.35
2016-10-03T12:15:11.007Z,80.82
2016-10-03T12:16:11.237Z,79.96
2016-10-03T12:17:11.454Z,79.68
2016-10-03T12:18:11.553Z,80.02
2016-10-03T12:19:11.224Z,80.11
2016-10-03T12:20:11.436Z,78.81
2016-10-03T12:21:11.214Z,78.47
2016-10-03T12:22:11.606Z,76.44
2016-10-03T12:23:11.474Z,77.21
2016-10-03T12:24:11.342Z,75.87
2016-10-03T12:25:11.248Z,73.32
2016-10-03T12:26:11.693Z,73.13
2016-10-03T12:27:11.380Z,73.97
2016-10-03T12:28:11.476Z,72.66
2016-10-03T12:29:11.758Z,71.83
2016-10-03T12:30:11.607Z,71.52
2016-10-03T12:31:11.108Z,68.03
2016-10-03T12:32:12.224Z,64.95
2016-10-03T12:33:11.448Z,63.41
2016-10-03T12:34:11.816Z,66.46
2016-10-03T12:35:11.843Z,64.79
2016-10-03T12:36:11.813Z,64.76
2016-10-03T12:37:11.803Z,68.63
2016-10-03T12:38:11.832Z,67.03
2016-10-03T12:39:11.138Z,67.67
2016-10-03T12:40:11.966Z,69.3
2016-10-03T12:41:11.744Z,69.2
2016-10-03T12:42:11.750Z,68.28
2016-10-03T12:43:11.481Z,68.85
2016-10-03T12:44:11.483Z,69.68
2016-10-03T12:45:12.224Z,68.82
2016-10-03T12:46:12.237Z,69.46
2016-10-03T12:47:11.677Z,69.93
2016-10-03T12:48:11.970Z,70.42
2016-10-03T12:49:12.189Z,71.72
2016-10-03T12:50:11.469Z,72.45
2016-10-03T12:51:11.633Z,72.36
2016-10-03T12:52:11.826Z,73.76
2016-10-03T12:53:13.156Z,74.33
2016-10-03T12:54:12.539Z,75.93
2016-10-03T12:55:11.978Z,76.4